Stephenville, Texas
Current Conditions -  °F | °C
As of 7:35 AM on Sunday 21 Dec 2014 (Local Time) from KSEP Reporting Station
Overcast Overcast  
Wind Chill: 44°   Ceiling: 1400
Heat Index: 47°   Visibility: 7mi
Dew Point: 42°   Wind: 5mph
Humidity: 84%   Direction: 160°SSE
Pressure: 30.09"   Gusts: NA
Location:  32.22°N, 98.2°W
Report Text: KSEP 211335Z AUTO 16004KT 7SM OVC014 08/06 A3009 RMK AO2 T00810056
Loading
Personal Weather Stations






























Interactive Weather Map New forecast layout! Learn more

10-Day Weather Forecast

Advertisements
Track Severe Weather on mobile